x

West Tampa - 112 Nm Wnw Of Tampa, Fl (42036) Wave Buoy

7:50am - Fri 22nd May 2015 All times are EDT. -4 hours from GMT.

  • Sig Wave height 1.3ft
  • Swell Direction
  • Peak Period 4s
  • Average Period 3s
  • Wind
    13mph, 16mph gusts
  • Sea Temp 80°f
  • Air Temp 80°f
  • Sea Pressure 1017.9mb
  • West Tampa  - 112 Nm Wnw Of Tampa, Fl
  • West Tampa  - 112 Nm Wnw Of Tampa, Fl

More Historic Weather Station data

Upgrade to MSW Pro to gain access to the past 30 days of data for over 8000 Wavebouys and Weather Stations around the globe.

Join Pro

Comparision Forecast

View Surf forecast
   
Fri 05/22 7:50am 1.3ft 4s 3s 13 16 mph 1017.9mb 80f 80f
6:50am 1.3ft 4s 3s 13
mph
1017.3mb 80f 80f
5:50am 1.3ft 4s 3s 9 11 mph 1016.5mb 80f 80f
4:50am 1.3ft 4s 3s 9
mph
1016.2mb 80f 80f
3:50am 1.3ft 3s 3s 9
mph
1016.4mb 80f 80f
2:50am 1.3ft 4s 3s 11
mph
1016.8mb 80f 80f
1:50am 1.6ft 4s 3s 11 13 mph 1017.2mb 80f 80f
12:50am 1.6ft 4s 3s 11 13 mph 1017.5mb 80f 80f
Thu 05/21 11:50pm 1.3ft 4s 3s 11 13 mph 1017.3mb 80f 80f
10:50pm 1.3ft 4s 3s 11 13 mph 1016.7mb 80f 80f
9:50pm 1.3ft 4s 4s 11 13 mph 1016.2mb 80f 81f
8:50pm 1.3ft 4s 4s 9 11 mph 1015.8mb 81f 81f
7:50pm 1.3ft 4s 4s 9
mph
1015.3mb 81f 81f
6:50pm 1.3ft 4s 4s 9 11 mph 1015mb 81f 81f
5:50pm 1.3ft 5s 4s 9 11 mph 1015.4mb 81f 81f
4:50pm 1.3ft 5s 4s 9 11 mph 1015.4mb 81f 81f
3:50pm 1.6ft 5s 4s 9
mph
1016.2mb 81f 81f
2:50pm 1.6ft 4s 4s 9
mph
1016.5mb 81f 81f
1:50pm 1.6ft 4s 4s 9
mph
1016.9mb 80f 80f
12:50pm 2ft 4s 4s 7
mph
1017.1mb 80f 80f
11:50am 2ft 4s 4s 7 9 mph 1017mb 80f 80f
10:50am 2.5ft 4s 4s 11 13 mph 1017mb 80f 80f
9:50am 2ft 4s 4s 13 18 mph 1017mb 80f 80f
8:50am 2ft 4s 4s 13 18 mph 1016.6mb 80f 80f
7:50am 2ft 4s 3s 16 18 mph 1016.1mb 80f 80f
6:50am 1.6ft 4s 3s 16 18 mph 1015.3mb 80f 79f
5:50am 2ft 4s 3s 16 18 mph 1014.6mb 80f 79f
4:50am 2ft 4s 3s 13
mph
1014.6mb 80f 80f
3:50am 2ft 3s 3s 11 13 mph 1014.6mb 80f 80f
2:50am 1.6ft 4s 3s 13 16 mph 1015.1mb 80f 80f
1:50am 1.6ft 4s 3s 13 16 mph 1016mb 80f 80f
12:50am 1.6ft 4s 3s 13 16 mph 1016.2mb 80f 80f
Wed 05/20 11:50pm 1.6ft 3s 3s 13 16 mph 1016.4mb 80f 80f
10:50pm 1.6ft 3s 3s 13 16 mph 1016.5mb 80f 80f
9:50pm 1.3ft 3s 3s 13 16 mph 1016mb 80f 80f
8:50pm 1.3ft 3s 3s 11 13 mph 1015.3mb 80f 80f
7:50pm 1.3ft 3s 3s 11
mph
1015.1mb 81f 81f
6:50pm 1ft 6s 3s 11 13 mph 1014.9mb 81f 81f
5:50pm 1ft 4s 4s 11 13 mph 1015mb 81f 81f
4:50pm 1ft 7s 4s 9 11 mph 1015.4mb 82f 81f
3:50pm 1ft 8s 4s 7 9 mph 1016.2mb 82f 80f
2:50pm 1ft 7s 4s 7 9 mph 1016.6mb 82f 80f
1:50pm 1ft 5s 4s 7
mph
1016.7mb 81f 80f
12:50pm 1ft 5s 4s 4 7 mph 1017mb 81f 80f
11:50am 1ft 7s 4s 7 9 mph 1017mb 80f 80f
10:50am 1ft 6s 4s 7
mph
1016.9mb 80f 80f
9:50am 1ft 7s 4s 7 9 mph 1016.7mb 80f 80f
8:50am 1ft 7s 4s 9 11 mph 1016.4mb 80f 80f
7:50am 1ft 6s 4s 9 11 mph 1016.3mb 80f 80f
6:50am 1ft 6s 4s 9
mph
1015.9mb 80f 79f
5:50am 1ft 7s 4s 9
mph
1015.7mb 80f 79f
4:50am 1ft 5s 4s 7 9 mph 1015.5mb 80f 79f
3:50am 1ft 6s 3s 7 9 mph 1015.8mb 80f 79f
2:50am 1.3ft 3s 3s 7 9 mph 1016.4mb 80f 79f
1:50am 1ft 2s 3s 9
mph
1017mb 80f 80f
12:50am 1.3ft 3s 3s 11
mph
1017.1mb 80f 80f
Tue 05/19 11:50pm 1ft 6s 3s 13
mph
1017.3mb 81f 80f
10:50pm 1ft 6s 4s 11 13 mph 1017.4mb 81f 80f
9:50pm 1ft 6s 4s 11 13 mph 1017.1mb 81f 81f
8:50pm 1ft 7s 4s 9 11 mph 1016.7mb 81f 81f
7:50pm 1ft 6s 5s 9 11 mph 1016.4mb 82f 82f
6:50pm 1ft 8s 5s 4 7 mph 1016.2mb 84f 82f
5:50pm 1ft 6s 5s 4 7 mph 1016.4mb 84f 82f
4:50pm 1ft 6s 5s 4 7 mph 1017.2mb 85f 81f
3:50pm 1ft 5s 5s  -  2 mph 1018mb 85f 81f
2:50pm 1ft 5s 5s 2
mph
1018.8mb 84f 81f
1:50pm 1ft 5s 5s  -  mph 1019.1mb 82f 80f
12:50pm 1ft 6s 5s 4
mph
1019.7mb 81f 80f
11:50am 1ft 6s 5s 4 7 mph 1020mb 80f 79f
10:50am 1ft 6s 5s 4 7 mph 1019.8mb 80f 79f
9:50am 1ft 5s 5s 9
mph
1019.8mb 80f 80f
8:50am 1ft 6s 5s 9 11 mph 1019.6mb 80f 79f
7:50am 1.3ft 6s 5s 9 11 mph 1019.1mb 80f 79f
6:50am 1.3ft 6s 5s 7
mph
1018.6mb 80f 79f
5:50am 1.3ft 6s 5s 4
mph
1018.2mb 80f 79f
4:50am 1.3ft 7s 5s  -  2 mph 1017.8mb 80f 79f
3:50am 1.3ft 7s 5s  -  2 mph 1017.9mb 80f 79f
2:50am 1.3ft 5s 5s  -  2 mph 1018.6mb 80f 79f
1:50am 1.3ft 7s 5s 4
mph
1019.3mb 80f 79f
12:50am 1.6ft 7s 5s 4 7 mph 1020mb 80f 79f
Mon 05/18 11:50pm 1.6ft 5s 5s 7 9 mph 1020.6mb 80f 80f
10:50pm 1.6ft 5s 4s 4 7 mph 1020.9mb 80f 80f
9:50pm 1.6ft 5s 4s 4
mph
1021mb 80f 80f
8:50pm 1.6ft 5s 4s 4
mph
1020.9mb 81f 80f
7:50pm 2ft 4s 4s 4
mph
1020.5mb 81f 81f
6:50pm 1.6ft 5s 4s 4
mph
1020.2mb 81f 81f
5:50pm 2ft 5s 4s 4
mph
1020.5mb 81f 81f
4:50pm 2ft 4s 4s 4
mph
1020.8mb 81f 81f
3:50pm 1.6ft 5s 4s 9 11 mph 1021mb 80f 80f
2:50pm 2ft 4s 4s 7 9 mph 1021.9mb 80f 80f
1:50pm 2ft 4s 4s 9
mph
1022.3mb 80f 80f